createdAt,value
2019-01-14T00:02:48.699Z,91.04
2019-01-14T00:05:38.291Z,91.04
2019-01-14T00:08:47.335Z,90.61
2019-01-14T00:11:37.674Z,90.61
2019-01-14T00:14:27.599Z,90.88
2019-01-14T00:17:36.390Z,90.53
2019-01-14T00:20:26.280Z,90.30
2019-01-14T00:23:16.043Z,90.30
2019-01-14T00:26:05.962Z,90.19
2019-01-14T00:28:56.960Z,90.12
2019-01-14T00:31:46.976Z,90.26
2019-01-14T00:34:43.520Z,90.63
2019-01-14T00:37:54.637Z,91.17
2019-01-14T00:40:44.878Z,91.19
2019-01-14T00:43:34.847Z,91.33
2019-01-14T00:46:24.610Z,90.77
2019-01-14T00:49:15.158Z,90.58
2019-01-14T00:52:08.448Z,90.60
2019-01-14T00:55:38.622Z,90.36
2019-01-14T00:58:30.465Z,90.31
2019-01-14T01:01:22.189Z,90.52
2019-01-14T01:04:12.734Z,90.43
2019-01-14T01:07:02.870Z,91.03
2019-01-14T01:09:52.569Z,91.45
2019-01-14T01:12:42.666Z,91.84
2019-01-14T01:15:32.358Z,91.09
2019-01-14T01:18:22.268Z,91.10
2019-01-14T01:21:11.801Z,91.80
2019-01-14T01:24:01.779Z,91.21
2019-01-14T01:26:51.446Z,91.36
2019-01-14T01:29:41.895Z,91.51
2019-01-14T01:32:31.591Z,91.65
2019-01-14T01:35:21.860Z,91.91
2019-01-14T01:38:11.900Z,91.63
2019-01-14T01:41:02.269Z,91.60
2019-01-14T01:43:52.813Z,91.80
2019-01-14T01:46:42.513Z,91.72
2019-01-14T01:49:32.209Z,91.69
2019-01-14T01:52:22.137Z,91.65
2019-01-14T01:55:12.325Z,91.62
2019-01-14T01:58:02.374Z,91.62
2019-01-14T02:00:52.565Z,91.51
2019-01-14T02:03:42.347Z,90.94
2019-01-14T02:06:38.990Z,90.73
2019-01-14T02:09:23.325Z,91.02
2019-01-14T02:12:13.111Z,91.19
2019-01-14T02:15:03.410Z,91.20
2019-01-14T02:17:53.620Z,91.05
2019-01-14T02:20:43.093Z,91.16
2019-01-14T02:23:32.781Z,91.18
2019-01-14T02:26:22.707Z,91.35
2019-01-14T02:29:12.392Z,91.14
2019-01-14T02:32:02.855Z,91.06
2019-01-14T02:34:52.527Z,91.12
2019-01-14T02:37:42.636Z,90.99
2019-01-14T02:40:33.234Z,91.22
2019-01-14T02:43:22.691Z,90.89
2019-01-14T02:46:12.364Z,90.99
2019-01-14T02:49:01.842Z,91.14
2019-01-14T02:51:53.864Z,90.62
2019-01-14T02:54:43.587Z,90.50
2019-01-14T02:57:33.026Z,90.04
2019-01-14T03:00:27.688Z,89.14
2019-01-14T03:03:17.788Z,88.28
2019-01-14T03:06:07.243Z,87.94
2019-01-14T03:08:56.997Z,87.68
2019-01-14T03:11:46.756Z,88.03
2019-01-14T03:14:37.252Z,87.84
2019-01-14T03:17:27.504Z,87.73
2019-01-14T03:20:17.174Z,87.98
2019-01-14T03:23:06.690Z,88.49
2019-01-14T03:25:58.292Z,88.77
2019-01-14T03:28:47.899Z,88.90
2019-01-14T03:31:37.361Z,88.71
2019-01-14T03:34:28.108Z,88.01
2019-01-14T03:37:18.617Z,87.40
2019-01-14T03:40:10.717Z,86.91
2019-01-14T03:43:00.642Z,86.42
2019-01-14T03:45:51.042Z,86.16
2019-01-14T03:48:59.695Z,86.11
2019-01-14T03:51:49.250Z,86.30
2019-01-14T03:54:39.045Z,86.58
2019-01-14T03:57:28.850Z,85.96
2019-01-14T04:00:18.677Z,86.19
2019-01-14T04:03:08.713Z,86.07
2019-01-14T04:05:58.517Z,86.09
2019-01-14T04:08:48.261Z,86.37
2019-01-14T04:11:37.715Z,86.03
2019-01-14T04:14:27.196Z,86.35
2019-01-14T04:17:17.123Z,86.48
2019-01-14T04:20:08.287Z,86.78
2019-01-14T04:22:58.052Z,87.15
2019-01-14T04:25:47.769Z,87.44
2019-01-14T04:28:37.205Z,87.44
2019-01-14T04:31:27.009Z,87.96
2019-01-14T04:34:16.991Z,87.99
2019-01-14T04:37:06.597Z,88.29
2019-01-14T04:39:56.376Z,88.53
2019-01-14T04:42:46.227Z,88.04
2019-01-14T04:45:36.092Z,88.02
2019-01-14T04:48:27.301Z,88.09
2019-01-14T04:51:16.990Z,87.74
2019-01-14T04:54:06.477Z,87.08
2019-01-14T04:56:56.199Z,87.44
2019-01-14T04:59:45.651Z,87.10
2019-01-14T05:02:36.115Z,86.58
2019-01-14T05:05:25.581Z,86.55
2019-01-14T05:08:15.800Z,86.65
2019-01-14T05:11:24.935Z,86.25
2019-01-14T05:14:14.633Z,86.19
2019-01-14T05:17:05.039Z,86.15
2019-01-14T05:19:54.763Z,86.02
2019-01-14T05:22:44.622Z,85.49
2019-01-14T05:25:34.819Z,85.59
2019-01-14T05:28:25.254Z,85.55
2019-01-14T05:31:15.247Z,85.77
2019-01-14T05:34:05.200Z,85.60
2019-01-14T05:37:13.923Z,85.60
2019-01-14T05:40:43.310Z,85.56
2019-01-14T05:43:33.030Z,85.97
2019-01-14T05:46:22.827Z,85.75
2019-01-14T05:49:31.520Z,86.19
2019-01-14T05:52:21.352Z,86.72
2019-01-14T05:55:11.204Z,86.68
2019-01-14T05:58:01.005Z,87.21
2019-01-14T06:00:51.130Z,87.65
2019-01-14T06:03:59.882Z,88.00
2019-01-14T06:06:49.498Z,88.40
2019-01-14T06:09:39.202Z,88.42
2019-01-14T06:12:29.170Z,88.57
2019-01-14T06:15:19.035Z,88.74
2019-01-14T06:18:28.528Z,88.68
2019-01-14T06:21:17.992Z,88.65
2019-01-14T06:24:07.584Z,88.77
2019-01-14T06:26:57.033Z,88.77
2019-01-14T06:29:46.546Z,88.69
2019-01-14T06:32:36.861Z,88.69
2019-01-14T06:35:26.460Z,88.56
2019-01-14T06:38:16.326Z,88.45
2019-01-14T06:41:05.961Z,88.66
2019-01-14T06:43:55.876Z,88.69
2019-01-14T06:46:45.664Z,88.68
2019-01-14T06:49:35.187Z,88.70
2019-01-14T06:52:24.921Z,88.77
2019-01-14T06:55:15.431Z,88.73
2019-01-14T06:58:45.277Z,88.27
2019-01-14T07:01:34.865Z,88.38
2019-01-14T07:04:24.328Z,88.11
2019-01-14T07:07:13.779Z,88.02
2019-01-14T07:10:03.424Z,87.62
2019-01-14T07:13:12.626Z,87.63
2019-01-14T07:16:02.566Z,87.69
2019-01-14T07:18:51.998Z,87.48
2019-01-14T07:21:41.442Z,87.63
2019-01-14T07:24:31.401Z,88.00
2019-01-14T07:27:21.106Z,88.09
2019-01-14T07:30:13.799Z,88.17
2019-01-14T07:33:03.645Z,88.46
2019-01-14T07:35:53.340Z,88.94
2019-01-14T07:38:42.895Z,88.81
2019-01-14T07:41:32.663Z,89.02
2019-01-14T07:44:22.596Z,88.89
2019-01-14T07:47:12.356Z,89.01
2019-01-14T07:50:02.136Z,88.97
2019-01-14T07:52:51.897Z,88.87
2019-01-14T07:55:42.312Z,89.20
2019-01-14T07:58:32.325Z,89.15
2019-01-14T08:01:40.996Z,89.20
2019-01-14T08:04:30.764Z,89.21
2019-01-14T08:07:20.532Z,88.98
2019-01-14T08:10:29.578Z,88.75
2019-01-14T08:13:19.102Z,88.88
2019-01-14T08:16:20.527Z,88.76
2019-01-14T08:19:10.931Z,88.96
2019-01-14T08:22:01.006Z,88.93
2019-01-14T08:24:50.985Z,89.23
2019-01-14T08:27:41.088Z,88.95
2019-01-14T08:30:49.747Z,89.04
2019-01-14T08:33:39.213Z,89.03
2019-01-14T08:36:48.105Z,88.83
2019-01-14T08:39:37.649Z,88.75
2019-01-14T08:42:27.636Z,88.74
2019-01-14T08:45:36.372Z,88.87
2019-01-14T08:48:26.723Z,88.24
2019-01-14T08:51:35.647Z,88.32
2019-01-14T08:54:25.460Z,88.80
2019-01-14T08:57:15.451Z,88.17
2019-01-14T09:00:24.451Z,88.06
2019-01-14T09:03:33.379Z,88.41
2019-01-14T09:06:22.904Z,88.14
2019-01-14T09:09:13.297Z,88.16
2019-01-14T09:12:03.117Z,88.50
2019-01-14T09:14:52.848Z,88.66
2019-01-14T09:17:42.430Z,88.04
2019-01-14T09:20:32.197Z,87.74
2019-01-14T09:23:22.341Z,88.20
2019-01-14T09:26:11.789Z,88.71
2019-01-14T09:29:01.477Z,88.83
2019-01-14T09:35:01.681Z,88.58
2019-01-14T09:37:51.513Z,89.57
2019-01-14T09:40:42.008Z,89.45
2019-01-14T09:43:32.811Z,89.56
2019-01-14T09:46:22.519Z,89.67
2019-01-14T09:49:11.964Z,89.89
2019-01-14T09:52:01.722Z,89.59
2019-01-14T09:54:51.166Z,89.71
2019-01-14T09:57:40.915Z,89.82
2019-01-14T10:00:30.904Z,89.91
2019-01-14T10:03:20.420Z,90.06
2019-01-14T10:06:10.409Z,89.34
2019-01-14T10:09:00.088Z,89.22
2019-01-14T10:11:49.543Z,89.20
2019-01-14T10:14:39.317Z,89.19
2019-01-14T10:17:30.055Z,89.38
2019-01-14T10:20:20.036Z,89.40
2019-01-14T10:23:09.468Z,89.26
2019-01-14T10:29:09.492Z,89.15
2019-01-14T10:31:58.929Z,90.00
2019-01-14T10:34:48.843Z,90.38
2019-01-14T10:37:38.852Z,90.21
2019-01-14T10:40:28.680Z,90.08
2019-01-14T10:43:18.430Z,89.96
2019-01-14T10:46:27.357Z,89.89
2019-01-14T10:49:17.509Z,90.13
2019-01-14T10:52:07.123Z,89.89
2019-01-14T10:54:56.563Z,90.11
2019-01-14T10:57:46.736Z,90.00
2019-01-14T11:00:36.571Z,90.28
2019-01-14T11:03:26.076Z,90.15
2019-01-14T11:06:15.912Z,90.53
2019-01-14T11:12:18.640Z,90.28
2019-01-14T11:15:11.568Z,90.56
2019-01-14T11:18:01.545Z,90.34
2019-01-14T11:20:51.679Z,90.49
2019-01-14T11:23:41.864Z,90.63
2019-01-14T11:26:31.654Z,90.45
2019-01-14T11:29:21.472Z,90.45
2019-01-14T11:32:30.904Z,90.25
2019-01-14T11:35:40.245Z,90.04
2019-01-14T11:38:50.549Z,90.29
2019-01-14T11:41:40.581Z,90.43
2019-01-14T11:44:30.043Z,90.31
2019-01-14T11:47:19.838Z,90.66
2019-01-14T11:50:11.706Z,90.33
2019-01-14T11:53:01.293Z,89.80
2019-01-14T11:55:50.728Z,89.72
2019-01-14T11:58:40.976Z,89.54
2019-01-14T12:01:31.226Z,89.71
2019-01-14T12:04:21.190Z,89.83
2019-01-14T12:07:10.732Z,89.82
2019-01-14T12:10:00.680Z,89.40
2019-01-14T12:12:51.508Z,89.49
2019-01-14T12:15:41.505Z,89.40
2019-01-14T12:18:31.203Z,88.88
2019-01-14T12:21:21.244Z,88.89
2019-01-14T12:24:10.961Z,88.58
2019-01-14T12:27:00.395Z,88.64
2019-01-14T12:29:50.157Z,88.71
2019-01-14T12:32:40.154Z,88.56
2019-01-14T12:35:30.313Z,89.01
2019-01-14T12:38:20.260Z,88.64
2019-01-14T12:41:09.953Z,89.04
2019-01-14T12:44:00.416Z,89.44
2019-01-14T12:49:47.218Z,89.55
2019-01-14T12:52:37.499Z,90.00
2019-01-14T12:55:27.680Z,89.60
2019-01-14T12:58:17.876Z,89.87
2019-01-14T13:01:08.157Z,90.13
2019-01-14T13:03:58.138Z,90.11
2019-01-14T13:06:48.658Z,90.31
2019-01-14T13:09:38.647Z,89.76
2019-01-14T13:12:28.055Z,90.21
2019-01-14T13:15:20.173Z,90.52
2019-01-14T13:18:10.220Z,91.01
2019-01-14T13:20:59.677Z,91.04
2019-01-14T13:23:49.676Z,91.00
2019-01-14T13:26:39.763Z,90.98
2019-01-14T13:29:29.960Z,90.84
2019-01-14T13:32:20.029Z,91.09
2019-01-14T13:35:29.185Z,90.59
2019-01-14T13:38:19.618Z,90.70
2019-01-14T13:41:09.091Z,90.75
2019-01-14T13:43:58.926Z,91.08
2019-01-14T13:46:49.557Z,91.09
2019-01-14T13:49:39.879Z,90.81
2019-01-14T13:52:30.014Z,91.26
2019-01-14T13:56:11.375Z,91.00
2019-01-14T13:58:50.830Z,89.91
2019-01-14T14:01:59.792Z,92.71
2019-01-14T14:04:50.055Z,93.53
2019-01-14T14:07:40.447Z,93.53
2019-01-14T14:10:49.223Z,94.11
2019-01-14T14:13:39.174Z,94.11
2019-01-14T14:16:29.374Z,94.17
2019-01-14T14:19:30.443Z,94.87
2019-01-14T14:22:20.319Z,94.87
2019-01-14T14:25:29.071Z,94.86
2019-01-14T14:28:18.544Z,94.86
2019-01-14T14:31:08.702Z,94.82
2019-01-14T14:34:17.495Z,94.85
2019-01-14T14:37:07.299Z,94.85
2019-01-14T14:39:56.744Z,94.47
2019-01-14T14:42:46.527Z,94.47
2019-01-14T14:45:36.278Z,94.67
2019-01-14T14:48:45.192Z,94.83
2019-01-14T14:51:54.066Z,94.39
2019-01-14T14:54:44.146Z,94.39
2019-01-14T14:57:52.796Z,94.68
2019-01-14T15:00:42.327Z,94.38
2019-01-14T15:03:50.978Z,93.73
2019-01-14T15:06:40.432Z,93.73
2019-01-14T15:09:55.652Z,93.19
2019-01-14T15:12:41.501Z,93.19
2019-01-14T15:15:31.417Z,93.18
2019-01-14T15:18:21.002Z,93.32
2019-01-14T15:21:10.921Z,93.32
2019-01-14T15:24:03.328Z,93.02
2019-01-14T15:26:53.889Z,93.02
2019-01-14T15:30:03.174Z,92.67
2019-01-14T15:33:12.487Z,92.67
2019-01-14T15:36:21.293Z,92.31
2019-01-14T15:39:30.964Z,92.10
2019-01-14T15:42:20.617Z,92.10
2019-01-14T15:45:29.340Z,92.34
2019-01-14T15:48:18.882Z,92.34
2019-01-14T15:51:27.847Z,91.84
2019-01-14T15:54:17.456Z,91.54
2019-01-14T15:57:26.120Z,91.90
2019-01-14T16:00:34.842Z,91.43
2019-01-14T16:03:24.285Z,91.43
2019-01-14T16:06:33.260Z,90.97
2019-01-14T16:09:42.041Z,91.30
2019-01-14T16:12:31.494Z,90.83
2019-01-14T16:15:21.744Z,90.83
2019-01-14T16:18:11.506Z,91.10
2019-01-14T16:21:13.031Z,91.02
2019-01-14T16:24:02.788Z,91.02
2019-01-14T16:26:52.756Z,91.43
2019-01-14T16:30:01.678Z,91.26
2019-01-14T16:32:51.513Z,91.26
2019-01-14T16:36:00.529Z,91.43
2019-01-14T16:39:09.907Z,90.49
2019-01-14T16:42:18.595Z,90.28
2019-01-14T16:45:11.085Z,90.28
2019-01-14T16:48:20.066Z,90.08
2019-01-14T16:51:28.711Z,90.25
2019-01-14T16:54:37.365Z,89.93
2019-01-14T16:57:46.516Z,89.46
2019-01-14T17:00:36.402Z,89.87
2019-01-14T17:03:26.891Z,89.87
2019-01-14T17:06:16.735Z,89.41
2019-01-14T17:09:25.742Z,89.21
2019-01-14T17:12:17.529Z,89.81
2019-01-14T17:15:29.502Z,89.55
2019-01-14T17:18:19.277Z,89.55
2019-01-14T17:21:28.182Z,89.04
2019-01-14T17:24:18.326Z,89.08
2019-01-14T17:27:27.057Z,88.44
2019-01-14T17:30:17.153Z,88.44
2019-01-14T17:33:06.969Z,88.02
2019-01-14T17:35:56.688Z,88.02
2019-01-14T17:38:47.315Z,87.80
2019-01-14T17:41:56.330Z,87.25
2019-01-14T17:45:06.015Z,87.80
2019-01-14T17:47:56.442Z,87.80
2019-01-14T17:53:22.369Z,87.88
2019-01-14T17:56:11.574Z,88.13
2019-01-14T17:59:00.245Z,88.25
2019-01-14T18:01:48.987Z,88.25
2019-01-14T18:04:37.826Z,88.28
2019-01-14T18:07:27.075Z,88.26
2019-01-14T18:10:16.556Z,88.26
2019-01-14T18:13:05.064Z,87.95
2019-01-14T18:15:54.079Z,88.49
2019-01-14T18:18:43.395Z,88.54
2019-01-14T18:21:32.401Z,88.54
2019-01-14T18:24:21.359Z,88.80
2019-01-14T18:27:10.229Z,88.80
2019-01-14T18:30:00.250Z,88.80
2019-01-14T18:32:49.035Z,88.77
2019-01-14T18:35:37.296Z,88.68
2019-01-14T18:38:26.571Z,89.21
2019-01-14T18:41:15.854Z,89.21
2019-01-14T18:44:05.070Z,89.48
2019-01-14T18:46:54.487Z,88.69
2019-01-14T18:49:43.352Z,88.69
2019-01-14T18:52:32.274Z,88.70
2019-01-14T18:55:21.140Z,88.70
2019-01-14T18:58:10.748Z,88.48
2019-01-14T19:00:59.565Z,88.43
2019-01-14T19:03:48.298Z,88.88
2019-01-14T19:06:37.385Z,88.88
2019-01-14T19:09:26.378Z,88.89
2019-01-14T19:12:15.287Z,89.27
2019-01-14T19:15:05.207Z,88.96
2019-01-14T19:17:54.445Z,88.70
2019-01-14T19:20:49.091Z,88.66
2019-01-14T19:23:37.933Z,88.28
2019-01-14T19:26:26.032Z,88.28
2019-01-14T19:29:19.530Z,87.95
2019-01-14T19:32:08.409Z,87.97
2019-01-14T19:34:57.386Z,87.52
2019-01-14T19:37:46.513Z,87.08
2019-01-14T19:40:35.346Z,87.32
2019-01-14T19:43:23.750Z,87.32
2019-01-14T19:46:12.099Z,86.55
2019-01-14T19:49:01.592Z,85.91
2019-01-14T19:51:51.320Z,85.92
2019-01-14T19:54:40.516Z,85.92
2019-01-14T19:57:29.226Z,85.98
2019-01-14T20:00:25.679Z,86.59
2019-01-14T20:03:15.207Z,86.59
2019-01-14T20:06:04.129Z,86.22
2019-01-14T20:08:52.880Z,86.36
2019-01-14T20:11:41.312Z,86.64
2019-01-14T20:14:30.055Z,86.55
2019-01-14T20:17:18.792Z,86.55
2019-01-14T20:20:08.362Z,86.35
2019-01-14T20:22:56.593Z,86.35
2019-01-14T20:25:48.681Z,86.36
2019-01-14T20:28:56.629Z,86.33
2019-01-14T20:31:46.771Z,86.79
2019-01-14T20:34:35.043Z,87.09
2019-01-14T20:37:24.405Z,87.73
2019-01-14T20:40:14.475Z,87.59
2019-01-14T20:43:03.425Z,87.59
2019-01-14T20:45:52.123Z,87.36
2019-01-14T20:48:41.121Z,87.54
2019-01-14T20:51:29.329Z,87.49
2019-01-14T20:54:18.388Z,87.42
2019-01-14T20:57:07.507Z,87.42
2019-01-14T20:59:57.214Z,87.46
2019-01-14T21:02:51.841Z,87.24
2019-01-14T21:05:40.604Z,87.73
2019-01-14T21:08:29.503Z,87.03
2019-01-14T21:11:23.843Z,87.03
2019-01-14T21:14:10.856Z,87.34
2019-01-14T21:17:01.333Z,86.90
2019-01-14T21:19:58.762Z,86.90
2019-01-14T21:23:15.703Z,86.99
2019-01-14T21:29:39.436Z,87.15
2019-01-14T21:32:28.071Z,86.49
2019-01-14T21:35:17.205Z,87.26
2019-01-14T21:38:05.584Z,91.25
2019-01-14T21:40:54.489Z,91.25
2019-01-14T21:43:42.786Z,90.43
2019-01-14T21:46:50.194Z,86.92
2019-01-14T21:49:38.813Z,85.38
2019-01-14T21:52:27.105Z,85.54
2019-01-14T21:55:18.378Z,85.34
2019-01-14T21:58:08.070Z,85.68
2019-01-14T22:00:56.848Z,86.18
2019-01-14T22:03:46.072Z,86.32
2019-01-14T22:06:35.102Z,86.34
2019-01-14T22:09:23.728Z,86.46
2019-01-14T22:12:12.691Z,86.46
2019-01-14T22:15:01.500Z,86.70
2019-01-14T22:17:50.047Z,86.41
2019-01-14T22:21:00.046Z,86.41
2019-01-14T22:23:48.998Z,87.36
2019-01-14T22:26:37.899Z,87.34
2019-01-14T22:29:45.991Z,87.41
2019-01-14T22:32:34.412Z,87.41
2019-01-14T22:35:23.513Z,87.62
2019-01-14T22:38:12.976Z,87.62
2019-01-14T22:41:01.951Z,87.62
2019-01-14T22:43:50.945Z,87.14
2019-01-14T22:46:40.056Z,87.20
2019-01-14T22:49:30.113Z,86.69
2019-01-14T22:52:19.213Z,86.69
2019-01-14T22:55:31.992Z,87.19
2019-01-14T22:58:20.592Z,87.19
2019-01-14T23:01:39.080Z,87.19
2019-01-14T23:04:27.743Z,88.69
2019-01-14T23:07:16.888Z,88.69
2019-01-14T23:10:06.465Z,87.54
2019-01-14T23:12:54.766Z,88.96
2019-01-14T23:15:43.964Z,88.96
2019-01-14T23:18:33.148Z,89.90
2019-01-14T23:21:21.579Z,91.05
2019-01-14T23:24:10.183Z,92.34
2019-01-14T23:26:58.998Z,92.99
2019-01-14T23:29:48.007Z,92.96
2019-01-14T23:32:36.274Z,91.39
2019-01-14T23:35:25.305Z,88.32
2019-01-14T23:38:14.192Z,87.39
2019-01-14T23:41:04.363Z,87.39
2019-01-14T23:43:52.862Z,87.61
2019-01-14T23:46:41.900Z,87.61
2019-01-14T23:49:30.016Z,87.19
2019-01-14T23:52:18.739Z,87.04
2019-01-14T23:55:07.975Z,86.31
2019-01-14T23:57:56.834Z,86.19
